createdAt,value
2023-04-13T00:00:58.608Z,9.747430
2023-04-13T00:01:58.677Z,9.747416
2023-04-13T00:02:58.822Z,9.747407
2023-04-13T00:03:58.985Z,9.747375
2023-04-13T00:04:58.609Z,9.747463
2023-04-13T00:05:58.568Z,9.747360
2023-04-13T00:06:58.559Z,9.747397
2023-04-13T00:07:58.560Z,9.747394
2023-04-13T00:08:58.547Z,9.747415
2023-04-13T00:09:58.580Z,9.747493
2023-04-13T00:10:58.533Z,9.747478
2023-04-13T00:11:58.534Z,9.747516
2023-04-13T00:12:58.526Z,9.747469
2023-04-13T00:13:58.740Z,9.747369
2023-04-13T00:14:58.533Z,9.747227
2023-04-13T00:15:58.512Z,9.747204
2023-04-13T00:16:58.530Z,9.747301
2023-04-13T00:17:58.520Z,9.747136
2023-04-13T00:18:58.478Z,9.747295
2023-04-13T00:19:58.487Z,9.747359
2023-04-13T00:20:58.448Z,9.747312
2023-04-13T00:21:58.439Z,9.747260
2023-04-13T00:22:58.441Z,9.747253
2023-04-13T00:23:58.633Z,9.747354
2023-04-13T00:24:58.478Z,9.747363
2023-04-13T00:25:58.431Z,9.747303
2023-04-13T00:26:58.424Z,9.747307
2023-04-13T00:27:58.395Z,9.747384
2023-04-13T00:28:58.388Z,9.747350
2023-04-13T00:29:58.417Z,9.747297
2023-04-13T00:30:58.418Z,9.747325
2023-04-13T00:31:58.400Z,9.747381
2023-04-13T00:32:58.380Z,9.747362
2023-04-13T00:33:58.638Z,9.747366
2023-04-13T00:34:58.382Z,9.747342
2023-04-13T00:35:58.366Z,9.747363
2023-04-13T00:36:58.337Z,9.747369
2023-04-13T00:37:58.331Z,9.747343
2023-04-13T00:38:58.316Z,9.747325
2023-04-13T00:39:58.364Z,9.747298
2023-04-13T00:40:58.314Z,9.747350
2023-04-13T00:41:58.297Z,9.747429
2023-04-13T00:42:58.312Z,9.747420
2023-04-13T00:43:58.432Z,9.747486
2023-04-13T00:44:58.314Z,9.747358
2023-04-13T00:45:58.336Z,9.747368
2023-04-13T00:46:58.262Z,9.747393
2023-04-13T00:47:58.376Z,9.747458
2023-04-13T00:48:58.270Z,9.747381
2023-04-13T00:49:58.306Z,9.747381
2023-04-13T00:50:58.235Z,9.747312
2023-04-13T00:51:58.234Z,9.747251
2023-04-13T00:52:58.270Z,9.747251
2023-04-13T00:53:58.326Z,9.747255
2023-04-13T00:54:58.267Z,9.747184
2023-04-13T00:55:58.195Z,9.747428
2023-04-13T00:56:58.190Z,9.747431
2023-04-13T00:57:58.178Z,9.747352
2023-04-13T00:58:58.169Z,9.747451
2023-04-13T00:59:58.209Z,9.747438
2023-04-13T01:00:58.186Z,9.747342
2023-04-13T01:01:58.240Z,9.747286
2023-04-13T01:02:58.218Z,9.747291
2023-04-13T01:03:58.403Z,9.747319
2023-04-13T01:04:58.199Z,9.747415
2023-04-13T01:05:58.125Z,9.747511
2023-04-13T01:06:58.116Z,9.747440
2023-04-13T01:07:58.127Z,9.747474
2023-04-13T01:08:58.113Z,9.747430
2023-04-13T01:09:58.123Z,9.747411
2023-04-13T01:10:58.097Z,9.747486
2023-04-13T01:11:58.079Z,9.747431
2023-04-13T01:12:58.074Z,9.747521
2023-04-13T01:13:58.201Z,9.747331
2023-04-13T01:14:58.090Z,9.747344
2023-04-13T01:15:58.100Z,9.747412
2023-04-13T01:16:58.050Z,9.747421
2023-04-13T01:17:58.054Z,9.747571
2023-04-13T01:18:58.028Z,9.747260
2023-04-13T01:19:58.057Z,9.747291
2023-04-13T01:20:59.013Z,9.747464
2023-04-13T01:21:58.021Z,9.747325
2023-04-13T01:22:58.006Z,9.747412
2023-04-13T01:23:58.247Z,9.747264
2023-04-13T01:24:58.019Z,9.747423
2023-04-13T01:25:57.983Z,9.747383
2023-04-13T01:26:57.974Z,9.747461
2023-04-13T01:27:57.959Z,9.747396
2023-04-13T01:28:57.959Z,9.747256
2023-04-13T01:29:58.004Z,9.747359
2023-04-13T01:30:57.968Z,9.747408
2023-04-13T01:31:57.988Z,9.747371
2023-04-13T01:32:58.987Z,9.747434
2023-04-13T01:33:58.262Z,9.747315
2023-04-13T01:34:57.931Z,9.747161
2023-04-13T01:35:57.902Z,9.747278
2023-04-13T01:36:57.897Z,9.747274
2023-04-13T01:37:57.886Z,9.747332
2023-04-13T01:38:57.872Z,9.747469
2023-04-13T01:39:57.893Z,9.747352
2023-04-13T01:40:57.857Z,9.747447
2023-04-13T01:41:57.847Z,9.747388
2023-04-13T01:42:57.841Z,9.747394
2023-04-13T01:43:58.154Z,9.747401
2023-04-13T01:44:57.859Z,9.747396
2023-04-13T01:45:57.821Z,9.747304
2023-04-13T01:46:57.975Z,9.747361
2023-04-13T01:47:57.876Z,9.747404
2023-04-13T01:48:57.812Z,9.747326
2023-04-13T01:49:57.827Z,9.747349
2023-04-13T01:50:57.792Z,9.747392
2023-04-13T01:51:57.783Z,9.747466
2023-04-13T01:52:57.778Z,9.747482
2023-04-13T01:53:58.088Z,9.747407
2023-04-13T01:54:57.785Z,9.747464
2023-04-13T01:55:57.745Z,9.747484
2023-04-13T01:56:57.747Z,9.747428
2023-04-13T01:57:57.741Z,9.747386
2023-04-13T01:58:57.726Z,9.747319
2023-04-13T01:59:57.751Z,9.747221
2023-04-13T02:00:57.743Z,9.747247
2023-04-13T02:01:57.712Z,9.747244
2023-04-13T02:02:58.884Z,9.747345
2023-04-13T02:03:58.240Z,9.747404
2023-04-13T02:04:57.729Z,9.747333
2023-04-13T02:05:57.675Z,9.747096
2023-04-13T02:06:57.669Z,9.747290
2023-04-13T02:07:57.666Z,9.747364
2023-04-13T02:08:57.653Z,9.747486
2023-04-13T02:09:57.672Z,9.747497
2023-04-13T02:10:57.643Z,9.747393
2023-04-13T02:11:57.623Z,9.747357
2023-04-13T02:12:57.620Z,9.747351
2023-04-13T02:13:57.824Z,9.747378
2023-04-13T02:14:57.645Z,9.747398
2023-04-13T02:15:57.651Z,9.747404
2023-04-13T02:16:57.618Z,9.747522
2023-04-13T02:17:57.612Z,9.747582
2023-04-13T02:18:57.577Z,9.747511
2023-04-13T02:19:57.620Z,9.747546
2023-04-13T02:20:57.567Z,9.747378
2023-04-13T02:21:57.573Z,9.747403
2023-04-13T02:22:57.551Z,9.747379
2023-04-13T02:23:57.791Z,9.747380
2023-04-13T02:24:57.592Z,9.747409
2023-04-13T02:25:57.527Z,9.747353
2023-04-13T02:26:57.522Z,9.747661
2023-04-13T02:27:57.513Z,9.747588
2023-04-13T02:28:57.501Z,9.747407
2023-04-13T02:29:57.552Z,9.747400
2023-04-13T02:30:57.496Z,9.747409
2023-04-13T02:31:57.510Z,9.747383
2023-04-13T02:32:57.544Z,9.747452
2023-04-13T02:33:57.894Z,9.747632
2023-04-13T02:34:57.497Z,9.747993
2023-04-13T02:35:57.459Z,9.747539
2023-04-13T02:36:57.460Z,9.747392
2023-04-13T02:37:57.447Z,9.747420
2023-04-13T02:38:57.448Z,9.747617
2023-04-13T02:39:57.450Z,9.747429
2023-04-13T02:40:57.437Z,9.747467
2023-04-13T02:41:57.433Z,9.747180
2023-04-13T02:42:57.422Z,9.747283
2023-04-13T02:43:57.841Z,9.747267
2023-04-13T02:44:57.423Z,9.747252
2023-04-13T02:45:57.455Z,9.747069
2023-04-13T02:46:57.402Z,9.747228
2023-04-13T02:47:57.412Z,9.747470
2023-04-13T02:48:57.367Z,9.747489
2023-04-13T02:49:57.381Z,9.747458
2023-04-13T02:50:57.344Z,9.747299
2023-04-13T02:51:57.344Z,9.747426
2023-04-13T02:52:57.326Z,9.747172
2023-04-13T02:53:58.120Z,9.747281
2023-04-13T02:54:58.375Z,9.747356
2023-04-13T02:55:57.308Z,9.747542
2023-04-13T02:56:57.296Z,9.747326
2023-04-13T02:57:57.304Z,9.747050
2023-04-13T02:58:57.285Z,9.747155
2023-04-13T02:59:57.267Z,9.747511
2023-04-13T03:00:57.309Z,9.747437
2023-04-13T03:01:57.312Z,9.747301
2023-04-13T03:02:57.351Z,9.747266
2023-04-13T03:03:57.425Z,9.747311
2023-04-13T03:04:57.441Z,9.747471
2023-04-13T03:05:57.258Z,9.747337
2023-04-13T03:06:57.219Z,9.747092
2023-04-13T03:07:57.220Z,9.747243
2023-04-13T03:08:57.218Z,9.747265
2023-04-13T03:09:57.194Z,9.747387
2023-04-13T03:10:57.235Z,9.747396
2023-04-13T03:11:57.257Z,9.747347
2023-04-13T03:12:57.169Z,9.747200
2023-04-13T03:13:57.381Z,9.747239
2023-04-13T03:14:57.165Z,9.747288
2023-04-13T03:15:57.183Z,9.747188
2023-04-13T03:16:57.197Z,9.747127
2023-04-13T03:17:57.173Z,9.747106
2023-04-13T03:18:57.138Z,9.747184
2023-04-13T03:19:57.129Z,9.747343
2023-04-13T03:20:57.161Z,9.747554
2023-04-13T03:21:57.105Z,9.747366
2023-04-13T03:22:57.120Z,9.747263
2023-04-13T03:23:57.254Z,9.747254
2023-04-13T03:24:57.082Z,9.747498
2023-04-13T03:25:57.126Z,9.747233
2023-04-13T03:26:57.077Z,9.747040
2023-04-13T03:27:57.056Z,9.747219
2023-04-13T03:28:57.067Z,9.747303
2023-04-13T03:29:57.046Z,9.747369
2023-04-13T03:30:58.110Z,9.747224
2023-04-13T03:31:57.033Z,9.747330
2023-04-13T03:32:57.048Z,9.747377
2023-04-13T03:33:57.277Z,9.747400
2023-04-13T03:34:57.010Z,9.747307
2023-04-13T03:35:57.045Z,9.747313
2023-04-13T03:36:56.994Z,9.747327
2023-04-13T03:37:56.983Z,9.747397
2023-04-13T03:38:56.981Z,9.747419
2023-04-13T03:39:56.968Z,9.747343
2023-04-13T03:40:56.987Z,9.747310
2023-04-13T03:41:56.960Z,9.747243
2023-04-13T03:42:56.947Z,9.747411
2023-04-13T03:43:57.136Z,9.747508
2023-04-13T03:44:56.946Z,9.747328
2023-04-13T03:45:57.024Z,9.747341
2023-04-13T03:46:56.934Z,9.747050
2023-04-13T03:47:56.948Z,9.747197
2023-04-13T03:48:56.907Z,9.747155
2023-04-13T03:49:56.896Z,9.747164
2023-04-13T03:50:56.963Z,9.747201
2023-04-13T03:51:56.975Z,9.747186
2023-04-13T03:52:56.877Z,9.747278
2023-04-13T03:53:57.141Z,9.747331
2023-04-13T03:54:56.911Z,9.747468
2023-04-13T03:55:56.888Z,9.747441
2023-04-13T03:56:56.838Z,9.747271
2023-04-13T03:57:56.830Z,9.747340
2023-04-13T03:58:56.858Z,9.747348
2023-04-13T03:59:56.810Z,9.747635
2023-04-13T04:00:56.805Z,9.747600
2023-04-13T04:01:56.857Z,9.747708
2023-04-13T04:02:56.833Z,9.747766
2023-04-13T04:03:57.014Z,9.747313
2023-04-13T04:04:56.788Z,9.747451
2023-04-13T04:05:56.774Z,9.747522
2023-04-13T04:06:56.793Z,9.747587
2023-04-13T04:07:56.753Z,9.747605
2023-04-13T04:08:56.744Z,9.747752
2023-04-13T04:09:56.747Z,9.747775
2023-04-13T04:10:56.737Z,9.747585
2023-04-13T04:11:56.762Z,9.747609
2023-04-13T04:12:56.721Z,9.747596
2023-04-13T04:13:56.861Z,9.747734
2023-04-13T04:14:56.706Z,9.747375
2023-04-13T04:15:57.183Z,9.747373
2023-04-13T04:16:56.686Z,9.747123
2023-04-13T04:17:56.739Z,9.747355
2023-04-13T04:18:56.680Z,9.747458
2023-04-13T04:19:56.675Z,9.747431
2023-04-13T04:20:57.129Z,9.747491
2023-04-13T04:21:56.669Z,9.747738
2023-04-13T04:22:56.655Z,9.747606
2023-04-13T04:23:56.809Z,9.747523
2023-04-13T04:24:56.636Z,9.747487
2023-04-13T04:25:56.658Z,9.747488
2023-04-13T04:26:56.618Z,9.747667
2023-04-13T04:27:56.616Z,9.747497
2023-04-13T04:28:56.601Z,9.747558
2023-04-13T04:29:56.603Z,9.747646
2023-04-13T04:30:56.626Z,9.747679
2023-04-13T04:31:56.644Z,9.747375
2023-04-13T04:32:56.619Z,9.747501
2023-04-13T04:33:56.863Z,9.747374
2023-04-13T04:34:56.559Z,9.747263
2023-04-13T04:35:56.582Z,9.747277
2023-04-13T04:36:58.973Z,9.747377
2023-04-13T04:37:58.541Z,9.747523
2023-04-13T04:38:56.528Z,9.747544
2023-04-13T04:39:56.528Z,9.747493
2023-04-13T04:40:56.545Z,9.747651
2023-04-13T04:41:56.509Z,9.747660
2023-04-13T04:42:56.526Z,9.747552
2023-04-13T04:43:56.739Z,9.747652
2023-04-13T04:44:56.482Z,9.747655
2023-04-13T04:45:56.553Z,9.747558
2023-04-13T04:46:56.467Z,9.747459
2023-04-13T04:47:56.482Z,9.747501
2023-04-13T04:48:56.457Z,9.747452
2023-04-13T04:49:56.441Z,9.747497
2023-04-13T04:50:56.460Z,9.747563
2023-04-13T04:52:29.187Z,9.747528
2023-04-13T04:52:56.420Z,9.747505
2023-04-13T04:53:56.479Z,9.747531
2023-04-13T04:54:56.401Z,9.747502
2023-04-13T04:55:56.431Z,9.747496
2023-04-13T04:56:56.394Z,9.747487
2023-04-13T04:57:56.375Z,9.747666
2023-04-13T04:58:56.390Z,9.747552
2023-04-13T04:59:56.365Z,9.747395
2023-04-13T05:00:56.407Z,9.747417
2023-04-13T05:01:56.436Z,9.747456
2023-04-13T05:02:56.468Z,9.747420
2023-04-13T05:03:56.335Z,9.747323
2023-04-13T05:04:56.411Z,9.747387
2023-04-13T05:05:56.320Z,9.747422
2023-04-13T05:06:56.353Z,9.747381
2023-04-13T05:07:56.313Z,9.747450
2023-04-13T05:08:56.302Z,9.747371
2023-04-13T05:09:56.326Z,9.747415
2023-04-13T05:10:56.285Z,9.747432
2023-04-13T05:11:56.274Z,9.747487
2023-04-13T05:12:56.274Z,9.747715
2023-04-13T05:13:56.267Z,9.747569
2023-04-13T05:14:56.259Z,9.747582
2023-04-13T05:15:56.331Z,9.747526
2023-04-13T05:16:56.242Z,9.747561
2023-04-13T05:17:56.313Z,9.747604
2023-04-13T05:18:56.239Z,9.747649
2023-04-13T05:19:56.217Z,9.747507
2023-04-13T05:20:56.237Z,9.747522
2023-04-13T05:21:56.212Z,9.747559
2023-04-13T05:22:56.192Z,9.747516
2023-04-13T05:23:56.181Z,9.747590
2023-04-13T05:24:56.171Z,9.747526
2023-04-13T05:25:56.192Z,9.747485
2023-04-13T05:26:56.162Z,9.747560
2023-04-13T05:27:56.160Z,9.747579
2023-04-13T05:28:56.187Z,9.747524
2023-04-13T05:29:56.139Z,9.747559
2023-04-13T05:30:56.167Z,9.747574
2023-04-13T05:31:56.174Z,9.747551
2023-04-13T05:32:56.208Z,9.747549
2023-04-13T05:33:56.114Z,9.747509
2023-04-13T05:34:56.097Z,9.747479
2023-04-13T05:35:56.133Z,9.747494
2023-04-13T05:36:56.108Z,9.747537
2023-04-13T05:37:57.251Z,9.747634
2023-04-13T05:38:57.181Z,9.747605
2023-04-13T05:39:56.083Z,9.747644
2023-04-13T05:40:56.091Z,9.747530
2023-04-13T05:41:56.050Z,9.747525
2023-04-13T05:42:56.045Z,9.747511
2023-04-13T05:43:56.037Z,9.747521
2023-04-13T05:44:56.028Z,9.747432
2023-04-13T05:45:56.083Z,9.747517
2023-04-13T05:46:56.032Z,9.747442
2023-04-13T05:47:56.024Z,9.747418
2023-04-13T05:48:55.996Z,9.747481
2023-04-13T05:49:55.989Z,9.747486
2023-04-13T05:50:56.026Z,9.747496
2023-04-13T05:51:55.975Z,9.747408
2023-04-13T05:52:55.971Z,9.747398
2023-04-13T05:53:55.962Z,9.747501
2023-04-13T05:54:55.961Z,9.747424
2023-04-13T05:55:55.999Z,9.747444
2023-04-13T05:56:55.936Z,9.747451
2023-04-13T05:57:55.929Z,9.747437
2023-04-13T05:58:55.923Z,9.747454
2023-04-13T05:59:55.919Z,9.747513
2023-04-13T06:00:56.359Z,9.747516
2023-04-13T06:01:55.977Z,9.747490
2023-04-13T06:02:56.067Z,9.747434
2023-04-13T06:03:56.064Z,9.747487
2023-04-13T06:04:55.972Z,9.747506
2023-04-13T06:05:55.911Z,9.747525
2023-04-13T06:06:55.897Z,9.747443
2023-04-13T06:07:55.870Z,9.747471
2023-04-13T06:08:55.853Z,9.747444
2023-04-13T06:09:55.837Z,9.747466
2023-04-13T06:10:55.936Z,9.747457
2023-04-13T06:11:55.848Z,9.747493
2023-04-13T06:12:55.822Z,9.747470
2023-04-13T06:13:57.516Z,9.747443
2023-04-13T06:14:55.812Z,9.747527
2023-04-13T06:15:55.821Z,9.747421
2023-04-13T06:16:55.855Z,9.747394
2023-04-13T06:17:55.835Z,9.747493
2023-04-13T06:18:55.780Z,9.747426
2023-04-13T06:19:55.762Z,9.747459
2023-04-13T06:20:55.788Z,9.747398
2023-04-13T06:21:55.784Z,9.747432
2023-04-13T06:22:55.754Z,9.747362
2023-04-13T06:23:55.740Z,9.747330
2023-04-13T06:24:56.744Z,9.747433
2023-04-13T06:25:55.746Z,9.747379
2023-04-13T06:26:55.721Z,9.747391
2023-04-13T06:27:55.712Z,9.747461
2023-04-13T06:28:55.709Z,9.747435
2023-04-13T06:29:55.695Z,9.747508
2023-04-13T06:30:55.773Z,9.747343
2023-04-13T06:31:55.683Z,9.747441
2023-04-13T06:32:55.718Z,9.747362
2023-04-13T06:33:55.673Z,9.747415
2023-04-13T06:34:55.651Z,9.747519
2023-04-13T06:35:55.685Z,9.747477
2023-04-13T06:36:55.643Z,9.747536
2023-04-13T06:37:55.636Z,9.747375
2023-04-13T06:38:55.624Z,9.747402
2023-04-13T06:39:55.624Z,9.747392
2023-04-13T06:40:55.613Z,9.747469
2023-04-13T06:41:55.628Z,9.747403
2023-04-13T06:42:55.601Z,9.747338
2023-04-13T06:43:55.592Z,9.747451
2023-04-13T06:44:55.602Z,9.747407
2023-04-13T06:45:55.604Z,9.747449
2023-04-13T06:46:55.677Z,9.747482
2023-04-13T06:47:55.640Z,9.747450
2023-04-13T06:48:55.563Z,9.747568
2023-04-13T06:49:55.558Z,9.747540
2023-04-13T06:50:55.541Z,9.747489
2023-04-13T06:51:55.567Z,9.747499
2023-04-13T06:52:55.543Z,9.747453
2023-04-13T06:53:55.528Z,9.747468
2023-04-13T06:54:55.528Z,9.747527
2023-04-13T06:55:55.512Z,9.747526
2023-04-13T06:56:55.536Z,9.747494
2023-04-13T06:57:55.499Z,9.747452
2023-04-13T06:58:56.960Z,9.747483
2023-04-13T06:59:55.486Z,9.747401
2023-04-13T07:00:55.544Z,9.747515
2023-04-13T07:01:55.607Z,9.747531
2023-04-13T07:02:55.705Z,9.747525
2023-04-13T07:03:55.543Z,9.747428
2023-04-13T07:04:55.511Z,9.747417
2023-04-13T07:05:55.435Z,9.747441
2023-04-13T07:06:55.454Z,9.747438
2023-04-13T07:07:55.421Z,9.747523
2023-04-13T07:08:55.413Z,9.747598
2023-04-13T07:09:55.410Z,9.747552
2023-04-13T07:10:55.416Z,9.747574
2023-04-13T07:11:55.414Z,9.747595
2023-04-13T07:12:55.385Z,9.747512
2023-04-13T07:13:55.378Z,9.747725
2023-04-13T07:14:55.373Z,9.747436
2023-04-13T07:15:55.388Z,9.747364
2023-04-13T07:16:55.371Z,9.747638
2023-04-13T07:17:55.413Z,9.747419
2023-04-13T07:18:55.360Z,9.747527
2023-04-13T07:19:55.325Z,9.747465
2023-04-13T07:20:55.316Z,9.747540
2023-04-13T07:21:55.334Z,9.747325
2023-04-13T07:22:55.302Z,9.747633
2023-04-13T07:23:55.295Z,9.747320
2023-04-13T07:24:55.292Z,9.747395
2023-04-13T07:25:55.282Z,9.747355
2023-04-13T07:26:55.297Z,9.747368
2023-04-13T07:27:55.271Z,9.747294
2023-04-13T07:28:55.264Z,9.747566
2023-04-13T07:29:55.267Z,9.747398
2023-04-13T07:30:55.249Z,9.747336
2023-04-13T07:31:55.307Z,9.747440
2023-04-13T07:32:55.281Z,9.747466
2023-04-13T07:33:55.224Z,9.747373
2023-04-13T07:34:55.215Z,9.747224
2023-04-13T07:35:55.214Z,9.747321
2023-04-13T07:36:55.226Z,9.747309
2023-04-13T07:37:55.195Z,9.747341
2023-04-13T07:38:55.186Z,9.747563
2023-04-13T07:39:55.198Z,9.747989
2023-04-13T07:40:55.179Z,9.747333
2023-04-13T07:41:55.186Z,9.747412
2023-04-13T07:42:55.157Z,9.747284
2023-04-13T07:43:55.143Z,9.747511
2023-04-13T07:44:55.177Z,9.747396
2023-04-13T07:45:55.150Z,9.747490
2023-04-13T07:46:55.224Z,9.747719
2023-04-13T07:47:55.194Z,9.747656
2023-04-13T07:48:55.133Z,9.747658
2023-04-13T07:49:55.111Z,9.747516
2023-04-13T07:50:55.135Z,9.747491
2023-04-13T07:51:55.105Z,9.747546
2023-04-13T07:52:55.084Z,9.747503
2023-04-13T07:53:55.074Z,9.747515
2023-04-13T07:54:55.071Z,9.747479
2023-04-13T07:55:55.054Z,9.747456
2023-04-13T07:56:55.093Z,9.747643
2023-04-13T07:57:55.037Z,9.747557
2023-04-13T07:58:55.029Z,9.747295
2023-04-13T07:59:55.026Z,9.747312
2023-04-13T08:00:55.018Z,9.747423
2023-04-13T08:01:55.075Z,9.747370
2023-04-13T08:02:55.219Z,9.747505
2023-04-13T08:03:55.167Z,9.747485
2023-04-13T08:04:55.085Z,9.747620
2023-04-13T08:05:54.977Z,9.747480
2023-04-13T08:06:55.001Z,9.747570
2023-04-13T08:07:54.965Z,9.747520
2023-04-13T08:08:54.951Z,9.747212
2023-04-13T08:09:54.960Z,9.747281
2023-04-13T08:10:54.934Z,9.747493
2023-04-13T08:11:54.964Z,9.747383
2023-04-13T08:12:54.922Z,9.747245
2023-04-13T08:13:54.911Z,9.747355
2023-04-13T08:14:54.903Z,9.747377
2023-04-13T08:15:54.926Z,9.747322
2023-04-13T08:16:55.026Z,9.747400
2023-04-13T08:17:54.935Z,9.747299
2023-04-13T08:18:54.877Z,9.747330
2023-04-13T08:19:54.877Z,9.747528
2023-04-13T08:20:54.873Z,9.747478
2023-04-13T08:21:54.859Z,9.747175
2023-04-13T08:22:54.873Z,9.747438
2023-04-13T08:23:54.866Z,9.747499
2023-04-13T08:24:54.849Z,9.747396
2023-04-13T08:25:54.910Z,9.747460
2023-04-13T08:26:54.839Z,9.747524
2023-04-13T08:27:54.838Z,9.747454
2023-04-13T08:28:54.805Z,9.747496
2023-04-13T08:29:54.807Z,9.747621
2023-04-13T08:30:54.782Z,9.747515
2023-04-13T08:31:54.816Z,9.747437
2023-04-13T08:32:54.820Z,9.747526
2023-04-13T08:33:57.132Z,9.747643
2023-04-13T08:34:54.756Z,9.747472
2023-04-13T08:35:54.747Z,9.747513
2023-04-13T08:36:54.739Z,9.747568
2023-04-13T08:37:55.049Z,9.747472
2023-04-13T08:38:54.729Z,9.747390
2023-04-13T08:39:54.714Z,9.747400
2023-04-13T08:40:54.702Z,9.747405
2023-04-13T08:41:54.711Z,9.747496
2023-04-13T08:42:54.744Z,9.747527
2023-04-13T08:43:54.710Z,9.747596
2023-04-13T08:44:54.701Z,9.747570
2023-04-13T08:45:54.690Z,9.747654
2023-04-13T08:46:54.657Z,9.747553
2023-04-13T08:47:54.726Z,9.747481
2023-04-13T08:48:54.687Z,9.747385
2023-04-13T08:49:54.693Z,9.747416
2023-04-13T08:50:54.705Z,9.747468
2023-04-13T08:51:54.642Z,9.747468
2023-04-13T08:52:54.648Z,9.747547
2023-04-13T08:53:54.602Z,9.747571
2023-04-13T08:54:54.604Z,9.747537
2023-04-13T08:55:54.591Z,9.747539
2023-04-13T08:56:54.618Z,9.747525
2023-04-13T08:57:54.575Z,9.747478
2023-04-13T08:58:54.563Z,9.747582
2023-04-13T08:59:54.558Z,9.747422
2023-04-13T09:00:54.586Z,9.747510
2023-04-13T09:01:54.819Z,9.747442
2023-04-13T09:03:03.647Z,9.747505
2023-04-13T09:03:56.729Z,9.747525
2023-04-13T09:04:54.562Z,9.747492
2023-04-13T09:05:54.522Z,9.747493
2023-04-13T09:06:54.536Z,9.747483
2023-04-13T09:07:54.495Z,9.747508
2023-04-13T09:08:54.491Z,9.747390
2023-04-13T09:09:54.481Z,9.747459
2023-04-13T09:10:54.483Z,9.747396
2023-04-13T09:11:54.493Z,9.747483
2023-04-13T09:12:54.561Z,9.747348
2023-04-13T09:13:54.452Z,9.747425
2023-04-13T09:14:54.460Z,9.747480
2023-04-13T09:15:54.449Z,9.747464
2023-04-13T09:16:54.479Z,9.747476
2023-04-13T09:17:54.456Z,9.747479
2023-04-13T09:18:54.414Z,9.747586
2023-04-13T09:19:54.415Z,9.747499
2023-04-13T09:20:54.395Z,9.747402
2023-04-13T09:21:54.410Z,9.747414
2023-04-13T09:22:54.370Z,9.747504
2023-04-13T09:23:54.362Z,9.747480
2023-04-13T09:24:54.360Z,9.747477
2023-04-13T09:25:54.347Z,9.747294
2023-04-13T09:26:54.390Z,9.747395
2023-04-13T09:27:54.344Z,9.747321
2023-04-13T09:28:55.916Z,9.747369
2023-04-13T09:29:55.332Z,9.747377
2023-04-13T09:30:54.352Z,9.747328
2023-04-13T09:31:54.344Z,9.747327
2023-04-13T09:32:54.299Z,9.747240
2023-04-13T09:33:54.307Z,9.747489
2023-04-13T09:34:54.291Z,9.747443
2023-04-13T09:35:54.281Z,9.747519
2023-04-13T09:36:55.782Z,9.747574
2023-04-13T09:37:55.266Z,9.747391
2023-04-13T09:38:54.248Z,9.747401
2023-04-13T09:39:54.261Z,9.747501
2023-04-13T09:40:54.420Z,9.747536
2023-04-13T09:41:54.268Z,9.747694
2023-04-13T09:42:54.225Z,9.747642
2023-04-13T09:43:54.222Z,9.747569
2023-04-13T09:44:54.211Z,9.747431
2023-04-13T09:45:54.225Z,9.747575
2023-04-13T09:46:54.368Z,9.747636
2023-04-13T09:47:54.233Z,9.747549
2023-04-13T09:48:54.179Z,9.747479
2023-04-13T09:49:54.173Z,9.747430
2023-04-13T09:50:54.173Z,9.747404
2023-04-13T09:51:54.174Z,9.747333
2023-04-13T09:52:54.274Z,9.747382
2023-04-13T09:53:54.146Z,9.747477
2023-04-13T09:54:54.185Z,9.747474
2023-04-13T09:55:54.140Z,9.747456
2023-04-13T09:56:54.122Z,9.747528
2023-04-13T09:57:54.458Z,9.747514
2023-04-13T09:58:54.138Z,9.747535
2023-04-13T09:59:54.113Z,9.747696
2023-04-13T10:00:54.125Z,9.747560
2023-04-13T10:01:54.205Z,9.747570
2023-04-13T10:02:54.128Z,9.747363
2023-04-13T10:03:55.101Z,9.747494
2023-04-13T10:04:54.138Z,9.747519
2023-04-13T10:05:59.590Z,9.747436
2023-04-13T10:06:56.039Z,9.747457
2023-04-13T10:07:54.062Z,9.747525
2023-04-13T10:08:54.032Z,9.747345
2023-04-13T10:09:54.039Z,9.747435
2023-04-13T10:10:54.015Z,9.747411
2023-04-13T10:11:54.007Z,9.747479
2023-04-13T10:12:54.058Z,9.747437
2023-04-13T10:13:54.007Z,9.747509
2023-04-13T10:14:53.984Z,9.747463
2023-04-13T10:15:54.017Z,9.747489
2023-04-13T10:16:54.010Z,9.747463
2023-04-13T10:17:54.034Z,9.747518
2023-04-13T10:18:53.953Z,9.747475
2023-04-13T10:19:53.962Z,9.747436
2023-04-13T10:20:53.944Z,9.747459
2023-04-13T10:21:54.823Z,9.747433
2023-04-13T10:22:53.955Z,9.747462
2023-04-13T10:23:53.923Z,9.747474
2023-04-13T10:24:53.911Z,9.747404
2023-04-13T10:25:53.920Z,9.747439
2023-04-13T10:26:53.902Z,9.747389
2023-04-13T10:27:53.932Z,9.747413
2023-04-13T10:28:53.879Z,9.747443
2023-04-13T10:29:53.872Z,9.747493
2023-04-13T10:30:54.771Z,9.747507
2023-04-13T10:31:54.974Z,9.747375
2023-04-13T10:32:53.922Z,9.747397
2023-04-13T10:33:53.860Z,9.747369
2023-04-13T10:34:53.847Z,9.747435
2023-04-13T10:35:53.825Z,9.747454
2023-04-13T10:36:53.837Z,9.747444
2023-04-13T10:37:53.846Z,9.747446
2023-04-13T10:38:53.818Z,9.747392
2023-04-13T10:39:53.799Z,9.747407
2023-04-13T10:40:53.795Z,9.747450
2023-04-13T10:41:53.787Z,9.747472
2023-04-13T10:42:53.817Z,9.747509
2023-04-13T10:43:53.766Z,9.747463
2023-04-13T10:44:53.765Z,9.747484
2023-04-13T10:45:53.761Z,9.747478
2023-04-13T10:46:53.782Z,9.747554
2023-04-13T10:47:53.781Z,9.747463
2023-04-13T10:48:53.736Z,9.747445
2023-04-13T10:49:53.747Z,9.747457
2023-04-13T10:50:53.716Z,9.747437
2023-04-13T10:51:53.706Z,9.747421
2023-04-13T10:53:27.121Z,9.747450
2023-04-13T10:53:53.692Z,9.747379
2023-04-13T10:54:53.688Z,9.747411
2023-04-13T10:55:53.674Z,9.747338
2023-04-13T10:56:53.668Z,9.747330
2023-04-13T10:57:53.686Z,9.747397
2023-04-13T10:58:53.673Z,9.747293
2023-04-13T10:59:58.582Z,9.747393
2023-04-13T11:00:55.641Z,9.747352
2023-04-13T11:01:53.726Z,9.747350
2023-04-13T11:02:53.828Z,9.747300
2023-04-13T11:04:03.795Z,9.747355
2023-04-13T11:04:55.787Z,9.747428
2023-04-13T11:05:53.617Z,9.747436
2023-04-13T11:06:53.607Z,9.747238
2023-04-13T11:07:55.460Z,9.747169
2023-04-13T11:08:54.640Z,9.747256
2023-04-13T11:09:53.583Z,9.747391
2023-04-13T11:10:53.621Z,9.747116
2023-04-13T11:11:53.566Z,9.747239
2023-04-13T11:12:53.601Z,9.747312
2023-04-13T11:13:53.555Z,9.747236
2023-04-13T11:14:53.549Z,9.747201
2023-04-13T11:15:53.557Z,9.747211
2023-04-13T11:16:58.549Z,9.747284
2023-04-13T11:17:55.585Z,9.747181
2023-04-13T11:18:53.574Z,9.747342
2023-04-13T11:19:53.508Z,9.747396
2023-04-13T11:20:53.551Z,9.747395
2023-04-13T11:21:53.496Z,9.747376
2023-04-13T11:22:53.514Z,9.747383
2023-04-13T11:23:53.480Z,9.747339
2023-04-13T11:24:53.493Z,9.747460
2023-04-13T11:25:53.466Z,9.747382
2023-04-13T11:26:53.462Z,9.747341
2023-04-13T11:27:53.477Z,9.747255
2023-04-13T11:28:53.458Z,9.747378
2023-04-13T11:29:53.451Z,9.747347
2023-04-13T11:30:53.431Z,9.747280
2023-04-13T11:31:53.427Z,9.747281
2023-04-13T11:32:53.505Z,9.747303
2023-04-13T11:33:53.426Z,9.747279
2023-04-13T11:34:53.390Z,9.747310
2023-04-13T11:35:53.383Z,9.747224
2023-04-13T11:36:53.381Z,9.747283
2023-04-13T11:37:53.402Z,9.747316
2023-04-13T11:38:53.361Z,9.747383
2023-04-13T11:39:53.365Z,9.747369
2023-04-13T11:40:58.954Z,9.747408
2023-04-13T11:41:55.334Z,9.747341
2023-04-13T11:42:53.380Z,9.747424
2023-04-13T11:43:53.321Z,9.747387
2023-04-13T11:44:53.330Z,9.747379